Time;durP1;ratioP1;P1;durP2;ratioP2;P2;SDS_P1;SDS_P2;PMS_P1;PMS_P2;Temp;Humidity;BMP_temperature;BMP_pressure;BME280_temperature;BME280_humidity;BME280_pressure;Samples;Min_cycle;Max_cycle;Signal;HPM_P1;HPM_P2
2023/10/22 00:00:42;;;;;;;13.35;1.90;;;;;;;12.74;77.27;99846.84;7400500;19;19918;-67
2023/10/22 00:03:10;;;;;;;5.50;0.75;;;;;;;12.72;77.56;99847.06;7401106;19;19915;-67
2023/10/22 00:05:40;;;;;;;4.88;0.77;;;;;;;12.73;77.48;99850.59;7400350;19;20294;-66
2023/10/22 00:08:08;;;;;;;4.05;0.98;;;;;;;12.70;77.88;99846.44;7400799;19;19918;-66
2023/10/22 00:10:37;;;;;;;7.93;1.02;;;;;;;12.67;77.59;99848.75;7400263;19;20344;-66
2023/10/22 00:13:06;;;;;;;3.22;0.82;;;;;;;12.64;77.88;99857.31;7400168;19;19919;-67
2023/10/22 00:15:34;;;;;;;4.65;0.82;;;;;;;12.58;77.79;99853.59;7399938;19;19934;-66
2023/10/22 00:18:05;;;;;;;2.90;0.90;;;;;;;12.52;77.63;99854.44;7399976;19;19919;-66
2023/10/22 00:20:34;;;;;;;5.43;1.13;;;;;;;12.48;78.03;99855.06;7399867;19;19918;-66
2023/10/22 00:23:03;;;;;;;1.35;0.63;;;;;;;12.44;77.98;99846.56;7400177;19;19922;-66
2023/10/22 00:25:32;;;;;;;1.83;0.80;;;;;;;12.42;78.22;99854.06;7400319;19;19940;-66
2023/10/22 00:28:00;;;;;;;6.20;0.90;;;;;;;12.40;78.16;99848.03;7399829;19;19940;-66
2023/10/22 00:30:30;;;;;;;1.98;0.73;;;;;;;12.39;78.01;99854.47;7400583;19;19939;-66
2023/10/22 00:32:58;;;;;;;3.38;0.85;;;;;;;12.37;78.12;99851.19;7400055;19;19986;-66
2023/10/22 00:35:29;;;;;;;3.20;0.80;;;;;;;12.36;78.34;99846.81;7399918;19;19918;-66
2023/10/22 00:37:58;;;;;;;1.92;0.75;;;;;;;12.35;78.55;99841.59;7399567;19;20649;-66
2023/10/22 00:40:26;;;;;;;3.72;0.60;;;;;;;12.33;78.52;99849.94;7399691;19;19915;-66
2023/10/22 00:42:57;;;;;;;3.60;0.90;;;;;;;12.31;78.43;99843.91;7398556;19;19939;-66
2023/10/22 00:45:25;;;;;;;2.67;0.70;;;;;;;12.30;78.63;99844.94;7400016;19;19921;-67
2023/10/22 00:47:54;;;;;;;3.72;0.80;;;;;;;12.30;78.37;99844.94;7399130;19;19939;-66
2023/10/22 00:50:23;;;;;;;3.92;0.82;;;;;;;12.30;78.63;99855.75;7399559;19;20313;-66
2023/10/22 00:52:54;;;;;;;6.03;1.02;;;;;;;12.30;78.55;99852.25;7398630;19;19978;-67
2023/10/22 00:55:24;;;;;;;2.92;0.68;;;;;;;12.31;78.56;99853.88;7399227;19;19923;-66
2023/10/22 00:57:53;;;;;;;3.90;0.85;;;;;;;12.29;78.61;99854.13;7398594;19;20349;-66
2023/10/22 01:00:23;;;;;;;4.32;0.77;;;;;;;12.28;78.83;99847.06;7402566;19;19979;-66
2023/10/22 01:02:51;;;;;;;4.72;0.68;;;;;;;12.29;79.03;99851.41;7405546;19;20329;-66
2023/10/22 01:05:20;;;;;;;2.50;0.80;;;;;;;12.30;78.89;99847.66;7404848;19;19970;-66
2023/10/22 01:07:49;;;;;;;3.83;0.65;;;;;;;12.31;78.81;99845.78;7405820;19;19927;-67
2023/10/22 01:10:21;;;;;;;6.20;0.85;;;;;;;12.32;78.96;99845.56;7404064;19;19914;-66
2023/10/22 01:12:49;;;;;;;1.08;0.77;;;;;;;12.33;78.83;99843.72;7404883;19;19915;-66
2023/10/22 01:15:18;;;;;;;2.90;0.57;;;;;;;12.34;78.76;99845.38;7404348;19;20321;-67
2023/10/22 01:17:47;;;;;;;2.83;0.52;;;;;;;12.33;78.96;99841.84;7405267;19;20705;-66
2023/10/22 01:20:16;;;;;;;1.70;0.60;;;;;;;12.33;79.08;99844.53;7404360;19;20434;-66
2023/10/22 01:22:44;;;;;;;1.80;0.63;;;;;;;12.35;79.09;99845.16;7404800;19;19915;-67
2023/10/22 01:25:16;;;;;;;3.42;1.08;;;;;;;12.38;79.13;99846.59;7403995;19;19922;-67
2023/10/22 01:27:44;;;;;;;7.68;1.05;;;;;;;12.37;79.01;99839.53;7404628;19;19931;-67
2023/10/22 01:30:13;;;;;;;2.08;0.70;;;;;;;12.40;78.84;99839.94;7404353;19;19978;-66
2023/10/22 01:32:42;;;;;;;4.85;0.85;;;;;;;12.41;79.33;99846.16;7404565;19;19918;-67
2023/10/22 01:35:12;;;;;;;4.97;0.60;;;;;;;12.43;79.12;99842.19;7404086;19;19956;-66
2023/10/22 01:37:40;;;;;;;4.40;0.57;;;;;;;12.44;79.22;99846.56;7404203;19;19933;-67
2023/10/22 01:40:11;;;;;;;2.20;0.50;;;;;;;12.45;79.02;99840.13;7403759;19;19922;-66
2023/10/22 01:42:43;;;;;;;2.83;0.60;;;;;;;12.46;79.11;99836.38;7403885;19;19922;-67
2023/10/22 01:45:12;;;;;;;1.48;0.38;;;;;;;12.46;79.31;99841.78;7403970;19;20333;-66
2023/10/22 01:47:40;;;;;;;1.80;0.60;;;;;;;12.46;79.22;99844.50;7403891;19;19919;-67
2023/10/22 01:50:09;;;;;;;3.50;0.85;;;;;;;12.47;79.41;99846.13;7403855;19;19919;-66
2023/10/22 01:52:38;;;;;;;3.65;0.68;;;;;;;12.49;79.37;99844.06;7403238;19;19955;-66
2023/10/22 01:55:08;;;;;;;1.10;0.45;;;;;;;12.48;79.86;99850.50;7403395;19;19935;-66
2023/10/22 01:57:37;;;;;;;3.47;0.52;;;;;;;12.48;79.90;99842.38;7403014;19;19915;-67
2023/10/22 02:00:10;;;;;;;4.55;0.70;;;;;;;12.47;80.04;99846.13;7403607;19;19930;-67
2023/10/22 02:02:39;;;;;;;0.75;0.55;;;;;;;12.46;79.86;99838.25;7403054;19;19915;-67
2023/10/22 02:05:08;;;;;;;3.25;0.40;;;;;;;12.45;80.12;99848.22;7404013;19;19948;-66
2023/10/22 02:07:39;;;;;;;2.17;0.75;;;;;;;12.46;80.24;99849.06;7403381;19;19918;-66
2023/10/22 02:10:09;;;;;;;1.85;0.50;;;;;;;12.46;80.00;99849.06;7403392;19;19923;-66
2023/10/22 02:12:38;;;;;;;2.10;0.60;;;;;;;12.47;80.33;99846.13;7401734;19;20223;-67
2023/10/22 02:15:10;;;;;;;6.78;1.15;;;;;;;12.49;80.19;99851.31;7403225;19;19921;-67
2023/10/22 02:17:39;;;;;;;3.63;1.30;;;;;;;12.52;80.39;99842.78;7403757;19;19914;-66
2023/10/22 02:20:10;;;;;;;2.03;0.38;;;;;;;12.55;80.50;99845.06;7402662;19;20352;-66
2023/10/22 02:22:39;;;;;;;3.00;0.40;;;;;;;12.59;80.06;99849.84;7402868;19;19923;-66
2023/10/22 02:25:09;;;;;;;1.77;0.50;;;;;;;12.62;80.47;99846.69;7402726;19;19918;-67
2023/10/22 02:27:38;;;;;;;1.48;0.40;;;;;;;12.64;80.60;99851.91;7403039;19;20260;-66
2023/10/22 02:30:11;;;;;;;1.02;0.40;;;;;;;12.65;81.39;99856.25;7403585;19;19935;-66
2023/10/22 02:32:39;;;;;;;1.27;0.45;;;;;;;12.64;81.26;99838.38;7403210;19;20382;-66
2023/10/22 02:35:10;;;;;;;2.70;0.50;;;;;;;12.61;81.98;99847.72;7403137;19;19918;-66
2023/10/22 02:37:39;;;;;;;6.20;0.73;;;;;;;12.59;82.33;99849.00;7402875;19;20310;-66
2023/10/22 02:40:12;;;;;;;2.67;0.43;;;;;;;12.55;83.39;99856.72;7403327;19;20281;-66
2023/10/22 02:42:40;;;;;;;3.35;0.30;;;;;;;12.53;83.11;99856.09;7402352;19;19930;-66
2023/10/22 02:45:12;;;;;;;0.52;0.30;;;;;;;12.45;85.10;99853.63;7402772;19;19925;-66
2023/10/22 02:47:40;;;;;;;;;;;;;;;12.33;86.16;99866.16;7405078;19;19918;-66
2023/10/22 02:50:11;;;;;;;3.20;0.60;;;;;;;12.38;84.29;99862.81;7399658;19;19923;-66
2023/10/22 02:52:39;;;;;;;1.52;0.50;;;;;;;12.38;85.10;99863.66;7402893;19;19922;-67
2023/10/22 02:55:09;;;;;;;1.50;0.40;;;;;;;12.35;85.23;99858.66;7402044;19;19943;-66
2023/10/22 02:57:37;;;;;;;3.25;0.63;;;;;;;12.33;85.55;99866.16;7402431;19;19942;-66
2023/10/22 03:00:10;;;;;;;1.15;0.50;;;;;;;12.31;85.91;99862.81;7402052;19;19927;-66
2023/10/22 03:02:42;;;;;;;2.00;0.40;;;;;;;12.30;86.32;99865.75;7402771;19;19926;-66
2023/10/22 03:05:10;;;;;;;;;;;;;;;12.18;87.85;99861.00;7404727;19;19986;-66
2023/10/22 03:07:41;;;;;;;3.60;0.70;;;;;;;12.25;86.44;99861.00;7401807;19;19936;-67
2023/10/22 03:10:10;;;;;;;5.38;0.65;;;;;;;12.28;86.21;99860.56;7401958;19;19940;-66
2023/10/22 03:12:39;;;;;;;0.68;0.50;;;;;;;12.30;85.80;99861.16;7402109;19;19926;-66
2023/10/22 03:15:09;;;;;;;0.30;0.10;;;;;;;12.33;85.31;99863.44;7401863;19;20247;-66
2023/10/22 03:17:40;;;;;;;1.80;0.38;;;;;;;12.37;85.31;99856.56;7402213;19;19918;-66
2023/10/22 03:20:11;;;;;;;2.38;0.60;;;;;;;12.41;85.19;99867.78;7401294;19;20351;-66
2023/10/22 03:22:39;;;;;;;1.25;0.30;;;;;;;12.44;84.68;99851.13;7400913;19;19931;-67
2023/10/22 03:25:09;;;;;;;1.65;0.32;;;;;;;12.45;85.02;99864.44;7402630;19;20388;-66
2023/10/22 03:27:38;;;;;;;2.05;0.65;;;;;;;12.44;84.66;99851.97;7402804;19;19933;-66
2023/10/22 03:30:10;;;;;;;3.65;0.50;;;;;;;12.48;85.00;99869.41;7401469;19;19915;-66
2023/10/22 03:32:41;;;;;;;0.98;0.50;;;;;;;12.48;85.21;99874.81;7401720;19;19922;-67
2023/10/22 03:35:10;;;;;;;2.67;0.60;;;;;;;12.50;84.36;99878.13;7400973;19;19923;-67
2023/10/22 03:37:39;;;;;;;2.67;0.70;;;;;;;12.50;84.54;99863.81;7401601;19;19956;-66
2023/10/22 03:40:09;;;;;;;2.83;0.50;;;;;;;12.50;84.79;99870.03;7401060;19;19930;-66
2023/10/22 03:42:38;;;;;;;1.58;0.40;;;;;;;12.50;84.54;99867.34;7401858;19;19961;-66
2023/10/22 03:45:09;;;;;;;2.35;0.35;;;;;;;12.50;84.73;99866.50;7401354;19;20370;-67
2023/10/22 03:47:40;;;;;;;2.00;0.55;;;;;;;12.50;84.73;99867.34;7401977;19;20552;-67
2023/10/22 03:50:10;;;;;;;1.95;0.40;;;;;;;12.50;84.74;99866.50;7400487;19;20369;-67
2023/10/22 03:52:39;;;;;;;3.92;0.60;;;;;;;12.50;84.66;99871.91;7401584;19;19919;-67
2023/10/22 03:55:08;;;;;;;6.03;0.63;;;;;;;12.52;84.63;99867.94;7401461;19;19940;-67
2023/10/22 03:57:37;;;;;;;1.58;0.45;;;;;;;12.52;84.85;99857.13;7401576;19;19925;-66
2023/10/22 04:00:07;;;;;;;2.55;0.60;;;;;;;12.53;84.48;99872.31;7401205;19;19947;-66
2023/10/22 04:02:36;;;;;;;1.33;0.40;;;;;;;12.53;84.88;99871.47;7400666;19;19918;-66
2023/10/22 04:05:08;;;;;;;1.45;0.50;;;;;;;12.53;84.98;99880.41;7401387;19;19943;-66
2023/10/22 04:07:37;;;;;;;0.95;0.40;;;;;;;12.53;84.92;99863.38;7400607;19;20272;-66
2023/10/22 04:10:09;;;;;;;1.42;0.40;;;;;;;12.52;85.08;99869.81;7401016;19;19948;-66
2023/10/22 04:12:38;;;;;;;2.40;0.50;;;;;;;12.52;84.98;99892.25;7400152;19;19948;-67
2023/10/22 04:15:08;;;;;;;1.85;0.40;;;;;;;12.53;85.33;99877.69;7400787;19;19952;-67
2023/10/22 04:17:37;;;;;;;2.67;0.43;;;;;;;12.52;85.31;99875.19;7399966;19;19922;-66
2023/10/22 04:20:10;;;;;;;5.55;0.60;;;;;;;12.52;85.35;99873.34;7400185;19;19914;-66
2023/10/22 04:22:38;;;;;;;2.28;0.40;;;;;;;12.52;85.41;99883.31;7400163;19;20294;-66
2023/10/22 04:25:07;;;;;;;0.90;0.50;;;;;;;12.52;85.79;99886.00;7400548;19;19918;-66
2023/10/22 04:27:36;;;;;;;1.52;0.63;;;;;;;12.51;85.74;99881.66;7399871;19;19965;-66
2023/10/22 04:30:07;;;;;;;1.55;0.50;;;;;;;12.48;86.43;99891.00;7400405;19;20459;-66
2023/10/22 04:32:36;;;;;;;1.23;0.50;;;;;;;12.46;86.45;99892.28;7400140;19;19918;-66
2023/10/22 04:35:08;;;;;;;2.83;0.40;;;;;;;12.42;87.52;99885.66;7402274;19;19923;-66
2023/10/22 04:37:36;;;;;;;1.27;0.70;;;;;;;12.40;87.33;99888.56;7406086;19;19927;-66
2023/10/22 04:40:06;;;;;;;1.40;0.47;;;;;;;12.36;88.06;99891.88;7404871;19;19915;-67
2023/10/22 04:42:34;;;;;;;0.35;0.32;;;;;;;12.34;88.83;99888.59;7405926;19;19910;-66
2023/10/22 04:45:03;;;;;;;1.85;0.40;;;;;;;12.31;89.01;99889.81;7404975;19;19918;-66
2023/10/22 04:47:31;;;;;;;3.80;0.50;;;;;;;12.29;89.06;99883.81;7405505;19;19923;-66
2023/10/22 04:50:00;;;;;;;0.82;0.43;;;;;;;12.27;90.17;99896.69;7404561;19;20337;-66
2023/10/22 04:52:33;;;;;;;1.38;0.30;;;;;;;12.24;90.67;99899.81;7405357;19;20270;-67
2023/10/22 04:55:02;;;;;;;0.90;0.60;;;;;;;12.20;90.93;99899.44;7405212;19;19926;-66
2023/10/22 04:57:31;;;;;;;1.33;0.65;;;;;;;12.18;91.04;99906.88;7405240;19;20349;-66
2023/10/22 04:59:59;;;;;;;0.70;0.40;;;;;;;12.16;91.47;99897.34;7405278;19;19915;-66
2023/10/22 05:02:28;;;;;;;1.35;0.40;;;;;;;12.13;92.21;99895.06;7404971;19;19919;-67
2023/10/22 05:04:57;;;;;;;0.90;0.30;;;;;;;12.11;92.92;99907.94;7406165;19;19926;-67
2023/10/22 05:07:25;;;;;;;1.55;0.68;;;;;;;12.08;93.58;99898.38;7405292;19;19935;-67
2023/10/22 05:09:56;;;;;;;0.68;0.50;;;;;;;12.07;94.07;99909.41;7405389;19;19914;-66
2023/10/22 05:12:29;;;;;;;1.50;0.45;;;;;;;12.03;94.44;99917.09;7404968;19;19922;-67
2023/10/22 05:14:57;;;;;;;4.43;0.77;;;;;;;11.99;95.76;99917.72;7405371;19;19943;-66
2023/10/22 05:17:27;;;;;;;1.67;0.47;;;;;;;11.97;94.76;99909.84;7404446;19;20035;-66
2023/10/22 05:19:55;;;;;;;1.77;0.55;;;;;;;11.94;96.00;99921.06;7405502;19;19923;-66
2023/10/22 05:22:24;;;;;;;2.72;0.50;;;;;;;11.92;96.12;99933.09;7404608;19;19918;-67
2023/10/22 05:24:52;;;;;;;1.05;0.52;;;;;;;11.90;96.84;99932.47;7405354;19;19914;-66
2023/10/22 05:27:23;;;;;;;2.70;0.63;;;;;;;11.86;97.78;99934.78;7405316;19;19943;-66
2023/10/22 05:29:53;;;;;;;2.22;0.50;;;;;;;11.82;98.97;99945.13;7405228;19;20007;-66
2023/10/22 05:32:22;;;;;;;1.95;0.70;;;;;;;11.77;99.30;99934.16;7404266;19;19941;-67
2023/10/22 05:34:51;;;;;;;0.60;0.60;;;;;;;11.75;100.00;99940.78;7405356;19;20280;-66
2023/10/22 05:37:22;;;;;;;0.75;0.50;;;;;;;11.73;99.85;99949.09;7405332;19;19955;-68
2023/10/22 05:39:50;;;;;;;0.90;0.70;;;;;;;11.70;100.00;99954.00;7404657;19;19933;-68
2023/10/22 05:42:19;;;;;;;2.20;0.68;;;;;;;11.69;100.00;99960.47;7405153;19;19950;-68
2023/10/22 05:44:50;;;;;;;1.08;0.65;;;;;;;11.68;100.00;99964.19;7404178;19;20265;-65
2023/10/22 05:47:19;;;;;;;1.30;0.60;;;;;;;11.66;100.00;99972.47;7404614;19;19919;-66
2023/10/22 05:49:47;;;;;;;0.98;0.68;;;;;;;11.66;100.00;99977.88;7404443;19;19948;-66
2023/10/22 05:52:16;;;;;;;3.00;0.75;;;;;;;11.66;100.00;99971.66;7404595;19;19910;-66
2023/10/22 05:54:44;;;;;;;0.70;0.50;;;;;;;11.66;100.00;99987.84;7404548;19;19931;-66
2023/10/22 05:57:13;;;;;;;0.98;0.65;;;;;;;11.65;100.00;99992.41;7404491;19;19974;-66
2023/10/22 05:59:41;;;;;;;2.33;0.70;;;;;;;11.65;100.00;99997.00;7404068;19;20493;-66
2023/10/22 06:02:12;;;;;;;1.63;0.50;;;;;;;11.66;100.00;99999.47;7404067;19;19914;-66
2023/10/22 06:04:41;;;;;;;1.80;0.80;;;;;;;11.67;100.00;100009.22;7403974;19;20392;-66
2023/10/22 06:07:10;;;;;;;0.80;0.80;;;;;;;11.69;100.00;100009.03;7404779;19;19915;-66
2023/10/22 06:09:39;;;;;;;2.00;0.70;;;;;;;11.69;100.00;100012.53;7403716;19;19944;-67
2023/10/22 06:12:08;;;;;;;1.52;0.50;;;;;;;11.69;100.00;100015.22;7404363;19;19919;-67
2023/10/22 06:14:37;;;;;;;2.45;0.60;;;;;;;11.69;100.00;100015.22;7403202;19;19922;-66
2023/10/22 06:17:05;;;;;;;0.85;0.70;;;;;;;11.71;100.00;100015.88;7404357;19;19935;-66
2023/10/22 06:19:37;;;;;;;0.70;0.70;;;;;;;11.72;100.00;100020.28;7403623;19;19911;-66
2023/10/22 06:22:05;;;;;;;1.20;0.70;;;;;;;11.74;100.00;100022.75;7403668;19;19919;-66
2023/10/22 06:24:34;;;;;;;0.77;0.60;;;;;;;11.74;100.00;100028.16;7404065;19;19919;-66
2023/10/22 06:27:03;;;;;;;1.17;0.65;;;;;;;11.74;100.00;100028.97;7403546;19;19910;-67
2023/10/22 06:29:32;;;;;;;0.85;0.57;;;;;;;11.77;100.00;100036.69;7403497;19;19919;-66
2023/10/22 06:32:00;;;;;;;1.58;0.68;;;;;;;11.77;100.00;100041.25;7402905;19;19915;-66
2023/10/22 06:34:29;;;;;;;1.58;0.60;;;;;;;11.77;100.00;100044.78;7403409;19;19933;-66
2023/10/22 06:37:00;;;;;;;4.53;0.60;;;;;;;11.79;100.00;100058.03;7402969;19;19907;-66
2023/10/22 06:39:29;;;;;;;1.35;0.50;;;;;;;11.78;100.00;100049.13;7403587;19;19914;-66
2023/10/22 06:41:59;;;;;;;0.38;0.38;;;;;;;11.81;100.00;100073.03;7402983;19;20391;-66
2023/10/22 06:44:28;;;;;;;0.47;0.40;;;;;;;11.86;100.00;100074.28;7403070;19;19915;-66
2023/10/22 06:46:56;;;;;;;0.20;0.20;;;;;;;11.89;100.00;100085.47;7403258;19;19943;-66
2023/10/22 06:49:25;;;;;;;0.30;0.20;;;;;;;11.93;100.00;100124.53;7403422;19;20300;-66
2023/10/22 06:51:53;;;;;;;1.20;0.52;;;;;;;11.99;100.00;100112.09;7402358;19;19922;-66
2023/10/22 06:54:24;;;;;;;2.38;0.82;;;;;;;12.01;100.00;100116.22;7403431;19;19939;-66
2023/10/22 06:56:53;;;;;;;1.20;0.50;;;;;;;12.00;100.00;100119.97;7401764;19;19939;-66
2023/10/22 06:59:21;;;;;;;0.57;0.38;;;;;;;12.00;100.00;100140.72;7402355;19;19918;-68
2023/10/22 07:01:50;;;;;;;0.98;0.43;;;;;;;11.97;100.00;100143.84;7403240;19;19914;-66
2023/10/22 07:04:19;;;;;;;0.68;0.40;;;;;;;11.92;100.00;100178.69;7402686;19;19944;-66
2023/10/22 07:06:48;;;;;;;1.83;0.40;;;;;;;11.87;100.00;100164.97;7403452;19;19935;-66
2023/10/22 07:09:16;;;;;;;1.30;0.28;;;;;;;11.77;100.00;100170.78;7402104;19;19923;-67
2023/10/22 07:11:48;;;;;;;0.85;0.30;;;;;;;11.69;100.00;100179.00;7402730;19;19933;-66
2023/10/22 07:14:17;;;;;;;2.22;0.50;;;;;;;11.64;100.00;100178.78;7401167;19;19932;-66
2023/10/22 07:16:45;;;;;;;1.67;0.50;;;;;;;11.58;100.00;100183.09;7402626;19;19917;-66
2023/10/22 07:19:14;;;;;;;2.05;0.50;;;;;;;11.54;100.00;100198.03;7402148;19;19919;-66
2023/10/22 07:21:42;;;;;;;4.53;0.77;;;;;;;11.51;100.00;100195.72;7402421;19;20271;-66
2023/10/22 07:24:11;;;;;;;4.65;0.70;;;;;;;11.51;100.00;100211.91;7402296;19;19936;-66
2023/10/22 07:26:40;;;;;;;1.60;0.70;;;;;;;11.49;100.00;100216.66;7402103;19;20289;-66
2023/10/22 07:29:12;;;;;;;3.72;0.50;;;;;;;11.47;100.00;100229.53;7402412;19;19927;-66
2023/10/22 07:31:42;;;;;;;4.80;0.80;;;;;;;11.47;100.00;100226.00;7402300;19;19954;-66
2023/10/22 07:34:11;;;;;;;4.00;0.70;;;;;;;11.47;100.00;100226.84;7402139;19;20329;-66
2023/10/22 07:36:40;;;;;;;1.35;0.90;;;;;;;11.49;100.00;100226.63;7402199;19;19918;-66
2023/10/22 07:39:11;;;;;;;8.13;1.20;;;;;;;11.51;100.00;100238.06;7401790;19;20313;-66
2023/10/22 07:41:41;;;;;;;5.05;0.90;;;;;;;11.53;100.00;100252.16;7400819;19;19918;-66
2023/10/22 07:44:12;;;;;;;4.22;0.95;;;;;;;11.56;100.00;100263.38;7402225;19;20333;-66
2023/10/22 07:46:41;;;;;;;7.65;0.90;;;;;;;11.59;100.00;100264.88;7401596;19;19918;-66
2023/10/22 07:49:11;;;;;;;1.63;0.85;;;;;;;11.60;100.00;100272.78;7401977;19;19918;-66
2023/10/22 07:51:39;;;;;;;3.70;0.85;;;;;;;11.63;100.00;100279.63;7400953;19;19925;-66
2023/10/22 07:54:08;;;;;;;9.45;1.05;;;;;;;11.64;100.00;100286.69;7401337;19;19918;-66
2023/10/22 07:56:37;;;;;;;1.88;0.70;;;;;;;11.65;100.00;100288.38;7400975;19;19921;-66
2023/10/22 07:59:05;;;;;;;1.95;0.85;;;;;;;11.65;100.00;100297.28;7401100;19;19923;-66
2023/10/22 08:01:36;;;;;;;4.13;0.95;;;;;;;11.64;100.00;100302.88;7401322;19;20254;-66
2023/10/22 08:04:06;;;;;;;2.45;1.00;;;;;;;11.64;100.00;100305.59;7401144;19;19941;-67
2023/10/22 08:06:35;;;;;;;3.80;1.23;;;;;;;11.66;100.00;100300.81;7401660;19;19925;-67
2023/10/22 08:09:03;;;;;;;3.10;0.63;;;;;;;11.66;100.00;100320.53;7397289;19;20275;-66
2023/10/22 08:11:32;;;;;;;4.03;1.05;;;;;;;11.69;100.00;100327.41;7400400;19;19922;-66
2023/10/22 08:14:00;;;;;;;2.35;0.90;;;;;;;11.71;100.00;100322.63;7400615;19;19922;-66
2023/10/22 08:16:29;;;;;;;3.35;1.10;;;;;;;11.73;100.00;100336.81;7401473;19;19919;-66
2023/10/22 08:19:00;;;;;;;3.97;0.98;;;;;;;11.74;99.73;100344.69;7399632;19;19914;-67
2023/10/22 08:21:29;;;;;;;2.55;1.20;;;;;;;11.75;99.02;100362.56;7400392;19;19942;-66
2023/10/22 08:23:57;;;;;;;2.25;0.98;;;;;;;11.76;98.23;100348.03;7400687;19;19935;-66
2023/10/22 08:26:27;;;;;;;5.57;2.05;;;;;;;11.78;98.21;100354.06;7400871;19;19933;-66
2023/10/22 08:28:55;;;;;;;3.78;1.33;;;;;;;11.79;98.29;100355.72;7399945;19;19922;-66
2023/10/22 08:31:24;;;;;;;3.08;1.00;;;;;;;11.80;98.09;100364.66;7400618;19;19923;-66
2023/10/22 08:33:53;;;;;;;2.42;1.30;;;;;;;11.80;98.61;100378.16;7400052;19;19943;-66
2023/10/22 08:36:24;;;;;;;3.25;1.00;;;;;;;11.79;98.27;100374.63;7400329;19;20630;-66
2023/10/22 08:38:53;;;;;;;;;;;;;;;11.72;99.17;100397.19;7402500;19;19919;-66
2023/10/22 08:41:24;;;;;;;4.28;1.17;;;;;;;11.78;98.73;100386.44;7399948;19;19911;-66
2023/10/22 08:43:53;;;;;;;2.33;1.35;;;;;;;11.81;98.58;100390.63;7400019;19;19943;-66
2023/10/22 08:46:21;;;;;;;1.73;1.10;;;;;;;11.86;98.66;100387.34;7399482;19;19919;-66
2023/10/22 08:48:50;;;;;;;4.32;1.30;;;;;;;11.92;98.34;100389.22;7399733;19;19944;-66
2023/10/22 08:51:22;;;;;;;3.60;1.13;;;;;;;11.98;98.27;100381.19;7398935;19;19917;-66
2023/10/22 08:53:54;;;;;;;3.25;0.90;;;;;;;12.05;97.17;100397.41;7400247;19;19947;-66
2023/10/22 08:56:23;;;;;;;;;;;;;;;12.03;97.46;100400.34;7402101;19;19942;-66
2023/10/22 08:58:52;;;;;;;2.47;1.00;;;;;;;12.14;95.93;100407.88;7399183;19;19947;-66
2023/10/22 09:01:21;;;;;;;4.03;1.00;;;;;;;12.23;95.41;100416.66;7398512;19;19944;-67
2023/10/22 09:03:49;;;;;;;3.03;0.80;;;;;;;12.28;94.66;100425.00;7399153;19;19922;-66
2023/10/22 09:06:19;;;;;;;5.65;1.10;;;;;;;12.32;94.00;100420.03;7398001;19;20023;-66
2023/10/22 09:08:48;;;;;;;1.52;0.70;;;;;;;12.33;94.21;100430.63;7398576;19;20706;-66
2023/10/22 09:11:21;;;;;;;4.60;0.90;;;;;;;12.37;93.92;100429.22;7398556;19;19940;-66
2023/10/22 09:13:50;;;;;;;2.88;1.10;;;;;;;12.40;94.11;100433.38;7398336;19;19918;-66
2023/10/22 09:16:33;;;;;;;2.63;1.10;;;;;;;12.36;93.16;100443.75;7398655;19;20373;-66
2023/10/22 09:19:02;;;;;;;2.78;0.80;;;;;;;12.37;92.89;100453.53;7397986;19;19927;-66
2023/10/22 09:21:44;;;;;;;3.22;0.95;;;;;;;12.35;92.31;100460.13;7402983;19;20361;-66
2023/10/22 09:24:13;;;;;;;2.08;0.75;;;;;;;12.39;93.21;100454.13;7403960;19;20650;-66
2023/10/22 09:26:48;;;;;;;3.35;0.95;;;;;;;12.41;92.85;100462.91;7405087;19;19926;-66
2023/10/22 09:29:16;;;;;;;4.05;0.95;;;;;;;12.45;92.45;100468.72;7404449;19;19946;-66
2023/10/22 09:31:52;;;;;;;3.63;0.70;;;;;;;12.48;91.67;100465.63;7404629;19;20591;-66
2023/10/22 09:34:27;;;;;;;3.20;0.77;;;;;;;12.56;91.64;100469.00;7404717;19;20275;-66
2023/10/22 09:36:57;;;;;;;4.70;0.98;;;;;;;12.64;91.54;100462.59;7404268;19;19932;-66
2023/10/22 09:39:36;;;;;;;6.00;0.70;;;;;;;12.69;90.16;100479.03;7404453;19;19930;-66
2023/10/22 09:42:08;;;;;;;1.63;0.60;;;;;;;12.80;89.31;100483.88;7404078;19;19923;-66
2023/10/22 09:44:38;;;;;;;2.55;0.88;;;;;;;12.92;88.91;100478.72;7404627;19;19928;-66
2023/10/22 09:47:08;;;;;;;1.30;0.70;;;;;;;13.06;87.58;100491.28;7404732;19;19914;-66
2023/10/22 09:49:38;;;;;;;5.03;0.52;;;;;;;13.15;87.11;100487.41;7403887;19;19918;-66
2023/10/22 09:52:08;;;;;;;4.00;1.00;;;;;;;13.32;86.98;100513.03;7404732;19;20272;-66
2023/10/22 09:54:41;;;;;;;5.82;0.73;;;;;;;13.40;83.82;100510.16;7403814;19;19931;-66
2023/10/22 09:57:16;;;;;;;1.45;0.70;;;;;;;13.48;82.55;100503.69;7404352;19;19918;-66
2023/10/22 09:59:45;;;;;;;2.88;0.50;;;;;;;13.55;82.78;100501.84;7403507;19;19940;-66
2023/10/22 10:02:17;;;;;;;4.10;0.93;;;;;;;13.60;82.21;100502.06;7403923;19;19919;-66
2023/10/22 10:04:47;;;;;;;1.10;0.50;;;;;;;13.69;83.91;100510.81;7403447;19;20372;-66
2023/10/22 10:07:17;;;;;;;2.88;0.50;;;;;;;13.74;81.00;100519.16;7403570;19;19914;-67
2023/10/22 10:09:47;;;;;;;3.92;0.60;;;;;;;13.80;79.47;100521.06;7403041;19;20329;-66
2023/10/22 10:12:19;;;;;;;8.30;0.70;;;;;;;13.86;76.41;100536.47;7403688;19;19927;-67
2023/10/22 10:14:48;;;;;;;;;;;;;;;13.63;73.58;100521.41;7406584;19;19925;-66
2023/10/22 10:17:19;;;;;;;1.55;0.43;;;;;;;13.85;77.90;100537.53;7403571;19;19922;-66
2023/10/22 10:19:48;;;;;;;2.45;0.43;;;;;;;13.87;77.18;100538.97;7403582;19;20606;-67
2023/10/22 10:22:41;;;;;;;2.08;0.60;;;;;;;13.83;73.08;100536.88;7402766;19;19918;-67
2023/10/22 10:25:32;;;;;;;1.70;0.77;;;;;;;13.67;73.50;100556.22;7403513;19;20683;-66
2023/10/22 10:28:08;;;;;;;4.45;0.40;;;;;;;13.61;73.38;100542.47;7403065;19;19952;-66
2023/10/22 10:30:38;;;;;;;1.65;0.70;;;;;;;13.63;75.48;100550.41;7403064;19;19922;-66
2023/10/22 10:33:07;;;;;;;1.58;0.47;;;;;;;13.57;75.62;100562.88;7401051;19;20275;-66
2023/10/22 10:35:46;;;;;;;1.55;0.55;;;;;;;13.74;70.58;100587.69;7402557;19;19922;-66
2023/10/22 10:38:28;;;;;;;3.20;0.45;;;;;;;13.97;70.86;100557.53;7403451;19;19911;-67
2023/10/22 10:40:58;;;;;;;2.30;0.60;;;;;;;14.24;72.73;100547.56;7403118;19;19934;-67
2023/10/22 10:43:56;;;;;;;7.82;1.55;;;;;;;14.45;70.89;100558.19;7402363;19;20491;-67
2023/10/22 10:46:32;;;;;;;1.55;0.60;;;;;;;14.67;69.86;100562.31;7402345;19;19919;-67
2023/10/22 10:49:00;;;;;;;4.88;1.20;;;;;;;14.85;70.85;100569.78;7403401;19;19926;-67
2023/10/22 10:51:29;;;;;;;2.17;0.70;;;;;;;14.93;69.39;100564.97;7402011;19;19922;-67
2023/10/22 10:54:17;;;;;;;1.38;0.38;;;;;;;14.80;67.36;100565.00;7402506;19;19918;-68
2023/10/22 10:56:50;;;;;;;4.18;0.40;;;;;;;14.78;67.91;100583.38;7402910;19;20311;-68
2023/10/22 10:59:33;;;;;;;1.88;0.40;;;;;;;14.83;66.57;100585.47;7402504;19;19919;-68
2023/10/22 11:02:14;;;;;;;0.73;0.40;;;;;;;14.59;65.36;100594.25;7402289;19;19914;-68
2023/10/22 11:04:47;;;;;;;2.47;0.32;;;;;;;14.45;67.36;100602.38;7401427;19;20332;-67
2023/10/22 11:07:16;;;;;;;0.95;0.22;;;;;;;14.38;69.38;100595.28;7402655;19;19907;-67
2023/10/22 11:09:45;;;;;;;1.65;0.32;;;;;;;14.19;68.97;100601.53;7401889;19;19915;-68
2023/10/22 11:12:13;;;;;;;0.60;0.30;;;;;;;14.16;68.75;100597.34;7402284;19;19926;-67
2023/10/22 11:14:42;;;;;;;1.70;0.30;;;;;;;14.33;66.82;100628.41;7402337;19;20014;-67
2023/10/22 11:17:13;;;;;;;2.72;0.40;;;;;;;14.09;64.78;100604.63;7401627;19;19914;-67
2023/10/22 11:19:42;;;;;;;0.90;0.30;;;;;;;14.03;67.83;100611.69;7402373;19;19922;-67
2023/10/22 11:22:12;;;;;;;0.77;0.30;;;;;;;14.07;66.20;100612.13;7401415;19;19940;-69
2023/10/22 11:24:41;;;;;;;2.95;0.30;;;;;;;14.36;66.17;100636.16;7401926;19;19948;-67
2023/10/22 11:27:11;;;;;;;0.47;0.25;;;;;;;14.53;64.49;100623.03;7401675;19;19926;-68
2023/10/22 11:29:42;;;;;;;1.02;0.40;;;;;;;14.47;63.43;100632.00;7402130;19;19914;-67
2023/10/22 11:32:18;;;;;;;0.40;0.20;;;;;;;14.44;62.80;100630.53;7401747;19;19943;-69
2023/10/22 11:34:50;;;;;;;1.33;0.90;;;;;;;14.58;63.04;100635.97;7401444;19;19919;-67
2023/10/22 11:37:23;;;;;;;1.60;0.57;;;;;;;14.53;62.53;100632.00;7401825;19;19927;-68
2023/10/22 11:39:51;;;;;;;2.05;0.40;;;;;;;14.56;64.98;100654.31;7401537;19;19923;-67
2023/10/22 11:42:20;;;;;;;3.50;0.52;;;;;;;14.78;63.42;100637.63;7401961;19;19924;-67